Main page
METAR-TAF:

METAR-TAF

Airports :

Palanga International Airport

Palanga, Lithuania

latitude: 55-55-12N, longitude: 021-03E, elevation: 10 m

Current weather observation

The report was made 10 minutes ago, at 00:20 UTC
Wind 7 kt from the Southeast
Temperature -6°C
Humidity 93%
Pressure 1013 hPa
Visibility: 5000 m
mist

METAR: EYPA 230020Z AUTO 14007KT 5000 BR OVC007/// M06/M07 Q1013

Time: 02:30 (00:30 UTC)

Forecast

The report was made 1 hour and 28 minutes ago, at 23:02 UTC
Forecast valid from 23 at 00 UTC to 23 at 24 UTC
Wind 8 kt from the South
Visibility: 4000 m
Broken clouds at a height of 600 ft
Temporary
from 23 at 00 UTC to 23 at 08 UTC
Visibility: 0600 m
at a height of 200 ft
freezing fog
Becoming
from 23 at 08 UTC to 23 at 09 UTC
Visibility: 6000 m
Scattered clouds at a height of 1000 ft
Broken clouds at a height of 2000 ft

TAF: EYPA 222302Z 2300/2324 17008KT 4000 BKN006 TEMPO 2300/2308 0600 FZFG VV002 BECMG 2308/2309 6000 SCT010 BKN020

Weather observations and forecasts of more than 4000 airports (METAR and TAF reports).

The available stations are represented by yellow and red dots on the map.

Hover mouse over dot to see the name of the station.

Then click to see weather observations and forecasts.

To change the map : click on the green buttons with a black cross to zoom in, on the green button with a dash to zoom out, or on the green arrows for adjacent maps.


METAR-TAF: